createdAt,value
2018-07-09T00:01:54.557Z,3.1
2018-07-09T00:04:54.944Z,3.1
2018-07-09T00:07:54.584Z,3.1
2018-07-09T00:10:54.763Z,3.1
2018-07-09T00:13:54.510Z,3.1
2018-07-09T00:16:54.413Z,3.1
2018-07-09T00:19:54.654Z,3.1
2018-07-09T00:22:54.677Z,3.1
2018-07-09T00:25:54.455Z,3.1
2018-07-09T00:28:54.542Z,3.1
2018-07-09T00:31:54.730Z,3.1
2018-07-09T00:34:54.538Z,3.1
2018-07-09T00:37:54.560Z,3.1
2018-07-09T00:40:54.782Z,3.1
2018-07-09T00:43:54.621Z,3.1
2018-07-09T00:46:54.602Z,3.1
2018-07-09T00:49:54.700Z,3.1
2018-07-09T00:52:54.812Z,3.1
2018-07-09T00:55:54.807Z,3.1
2018-07-09T00:58:54.695Z,3.1
2018-07-09T01:01:54.638Z,2.8
2018-07-09T01:04:54.589Z,2.8
2018-07-09T01:07:54.758Z,2.8
2018-07-09T01:10:54.510Z,2.8
2018-07-09T01:13:54.699Z,2.8
2018-07-09T01:16:54.517Z,2.8
2018-07-09T01:19:54.718Z,2.8
2018-07-09T01:22:54.648Z,2.8
2018-07-09T01:25:54.475Z,2.8
2018-07-09T01:28:54.680Z,2.8
2018-07-09T01:31:54.760Z,2.8
2018-07-09T01:34:54.562Z,2.8
2018-07-09T01:37:54.466Z,2.8
2018-07-09T01:40:54.535Z,2.8
2018-07-09T01:43:54.651Z,2.8
2018-07-09T01:46:54.779Z,2.8
2018-07-09T01:49:54.851Z,2.8
2018-07-09T01:52:54.589Z,2.8
2018-07-09T01:55:54.626Z,2.8
2018-07-09T01:58:54.493Z,2.8
2018-07-09T02:01:54.838Z,2.6
2018-07-09T02:04:54.833Z,2.6
2018-07-09T02:07:54.450Z,2.6
2018-07-09T02:10:54.552Z,2.6
2018-07-09T02:13:54.522Z,2.6
2018-07-09T02:16:54.640Z,2.6
2018-07-09T02:19:54.615Z,2.6
2018-07-09T02:22:54.719Z,2.6
2018-07-09T02:25:54.633Z,2.6
2018-07-09T02:28:54.505Z,2.6
2018-07-09T02:31:54.714Z,2.6
2018-07-09T02:34:54.865Z,2.6
2018-07-09T02:37:54.541Z,2.6
2018-07-09T02:40:54.700Z,2.6
2018-07-09T02:43:54.592Z,2.6
2018-07-09T02:46:54.604Z,2.6
2018-07-09T02:49:54.687Z,2.6
2018-07-09T02:52:54.545Z,2.6
2018-07-09T02:55:54.618Z,2.6
2018-07-09T02:58:54.645Z,2.6
2018-07-09T03:01:54.513Z,2.5
2018-07-09T03:04:54.796Z,2.5
2018-07-09T03:07:54.786Z,2.5
2018-07-09T03:10:54.476Z,2.5
2018-07-09T03:13:54.691Z,2.5
2018-07-09T03:16:54.686Z,2.5
2018-07-09T03:19:54.623Z,2.5
2018-07-09T03:22:54.849Z,2.5
2018-07-09T03:25:54.706Z,2.5
2018-07-09T03:28:54.737Z,2.5
2018-07-09T03:31:54.560Z,2.5
2018-07-09T03:35:04.469Z,2.5
2018-07-09T03:37:54.645Z,2.5
2018-07-09T03:40:54.414Z,2.5
2018-07-09T03:43:54.595Z,2.5
2018-07-09T03:46:54.572Z,2.5
2018-07-09T03:49:54.512Z,2.5
2018-07-09T03:52:54.432Z,2.5
2018-07-09T03:55:54.580Z,2.5
2018-07-09T03:58:54.576Z,2.5
2018-07-09T04:01:54.402Z,2.4
2018-07-09T04:04:54.627Z,2.4
2018-07-09T04:07:54.664Z,2.4
2018-07-09T04:10:54.431Z,2.4
2018-07-09T04:13:54.569Z,2.4
2018-07-09T04:16:54.748Z,2.4
2018-07-09T04:19:54.463Z,2.4
2018-07-09T04:22:54.439Z,2.4
2018-07-09T04:25:54.774Z,2.4
2018-07-09T04:28:54.459Z,2.4
2018-07-09T04:31:54.529Z,2.4
2018-07-09T04:34:54.545Z,2.4
2018-07-09T04:37:55.905Z,2.4
2018-07-09T04:40:54.605Z,2.4
2018-07-09T04:43:54.433Z,2.4
2018-07-09T04:46:54.617Z,2.4
2018-07-09T04:49:54.500Z,2.4
2018-07-09T04:52:54.614Z,2.4
2018-07-09T04:55:54.676Z,2.4
2018-07-09T04:58:54.622Z,2.4
2018-07-09T05:01:54.667Z,2.7
2018-07-09T05:04:54.540Z,2.7
2018-07-09T05:07:54.584Z,2.7
2018-07-09T05:10:54.485Z,2.7
2018-07-09T05:13:54.526Z,2.7
2018-07-09T05:16:54.474Z,2.7
2018-07-09T05:19:54.517Z,2.7
2018-07-09T05:22:54.639Z,2.7
2018-07-09T05:25:54.778Z,2.7
2018-07-09T05:28:54.476Z,2.7
2018-07-09T05:31:54.851Z,2.7
2018-07-09T05:34:54.505Z,2.7
2018-07-09T05:37:54.759Z,2.7
2018-07-09T05:40:54.639Z,2.7
2018-07-09T05:43:54.686Z,2.7
2018-07-09T05:46:54.899Z,2.7
2018-07-09T05:49:54.385Z,2.7
2018-07-09T05:52:54.633Z,2.7
2018-07-09T05:55:54.733Z,2.7
2018-07-09T05:58:55.219Z,2.7
2018-07-09T06:01:54.745Z,2.9
2018-07-09T06:04:54.490Z,2.9
2018-07-09T06:07:54.423Z,2.9
2018-07-09T06:10:54.645Z,2.9
2018-07-09T06:13:54.673Z,2.9
2018-07-09T06:16:54.587Z,2.9
2018-07-09T06:19:54.563Z,2.9
2018-07-09T06:22:54.516Z,2.9
2018-07-09T06:25:54.561Z,2.9
2018-07-09T06:28:54.539Z,2.9
2018-07-09T06:31:54.496Z,2.9
2018-07-09T06:34:54.649Z,2.9
2018-07-09T06:37:54.515Z,2.9
2018-07-09T06:40:54.508Z,2.9
2018-07-09T06:43:54.486Z,2.9
2018-07-09T06:46:54.783Z,2.9
2018-07-09T06:49:55.078Z,2.9
2018-07-09T06:52:54.486Z,2.9
2018-07-09T06:55:55.320Z,2.9
2018-07-09T06:58:54.602Z,2.9
2018-07-09T07:01:54.857Z,3
2018-07-09T07:04:54.794Z,3
2018-07-09T07:07:54.654Z,3
2018-07-09T07:10:54.663Z,3
2018-07-09T07:13:54.717Z,3
2018-07-09T07:16:54.518Z,3
2018-07-09T07:19:54.760Z,3
2018-07-09T07:22:54.421Z,3
2018-07-09T07:25:54.675Z,3
2018-07-09T07:28:54.580Z,3
2018-07-09T07:31:54.537Z,3
2018-07-09T07:34:54.558Z,3
2018-07-09T07:37:54.585Z,3
2018-07-09T07:40:54.448Z,3
2018-07-09T07:43:54.636Z,3
2018-07-09T07:46:54.656Z,3
2018-07-09T07:49:54.647Z,3
2018-07-09T07:52:54.512Z,3
2018-07-09T07:55:55.476Z,3
2018-07-09T07:58:54.579Z,3
2018-07-09T08:01:54.380Z,2.9
2018-07-09T08:04:54.436Z,2.9
2018-07-09T08:07:54.496Z,2.9
2018-07-09T08:10:54.504Z,2.9
2018-07-09T08:13:54.601Z,2.9
2018-07-09T08:16:54.603Z,2.9
2018-07-09T08:19:54.511Z,2.9
2018-07-09T08:22:54.641Z,2.9
2018-07-09T08:25:54.512Z,2.9
2018-07-09T08:28:54.509Z,2.9
2018-07-09T08:31:54.468Z,2.9
2018-07-09T08:34:54.585Z,2.9
2018-07-09T08:37:55.293Z,2.9
2018-07-09T08:40:54.386Z,2.9
2018-07-09T08:43:54.561Z,2.9
2018-07-09T08:46:54.601Z,2.9
2018-07-09T08:49:54.447Z,2.9
2018-07-09T08:52:54.382Z,2.9
2018-07-09T08:55:54.563Z,2.9
2018-07-09T08:58:54.471Z,2.9
2018-07-09T09:01:54.533Z,2.9
2018-07-09T09:04:54.586Z,2.9
2018-07-09T09:07:54.612Z,2.9
2018-07-09T09:10:54.808Z,2.9
2018-07-09T09:13:54.480Z,2.9
2018-07-09T09:16:54.782Z,2.9
2018-07-09T09:19:54.431Z,2.9
2018-07-09T09:22:54.883Z,2.9
2018-07-09T09:25:54.616Z,2.9
2018-07-09T09:28:54.464Z,2.9
2018-07-09T09:31:54.558Z,2.9
2018-07-09T09:34:54.477Z,2.9
2018-07-09T09:37:54.425Z,2.9
2018-07-09T09:40:54.823Z,2.9
2018-07-09T09:43:54.669Z,2.9
2018-07-09T09:46:54.451Z,2.9
2018-07-09T09:49:54.613Z,2.9
2018-07-09T09:52:54.633Z,2.9
2018-07-09T09:55:54.533Z,2.9
2018-07-09T09:58:54.659Z,2.9
2018-07-09T10:01:54.366Z,2.9
2018-07-09T10:04:54.479Z,2.9
2018-07-09T10:07:54.606Z,2.9
2018-07-09T10:10:54.445Z,2.9
2018-07-09T10:13:54.545Z,2.9
2018-07-09T10:16:55.519Z,2.9
2018-07-09T10:19:54.458Z,2.9
2018-07-09T10:22:55.866Z,2.9
2018-07-09T10:25:54.376Z,2.9
2018-07-09T10:28:54.553Z,2.9
2018-07-09T10:31:54.422Z,2.9
2018-07-09T10:34:54.488Z,2.9
2018-07-09T10:37:54.684Z,2.9
2018-07-09T10:40:54.550Z,2.9
2018-07-09T10:43:54.760Z,2.9
2018-07-09T10:46:54.648Z,2.9
2018-07-09T10:49:54.571Z,2.9
2018-07-09T10:52:54.544Z,2.9
2018-07-09T10:55:54.359Z,2.9
2018-07-09T10:58:54.573Z,2.9
2018-07-09T11:01:54.610Z,2.9
2018-07-09T11:04:54.457Z,2.9
2018-07-09T11:07:54.407Z,2.9
2018-07-09T11:10:54.364Z,2.9
2018-07-09T11:13:54.455Z,2.9
2018-07-09T11:17:00.009Z,2.9
2018-07-09T11:19:54.425Z,2.9
2018-07-09T11:22:54.517Z,2.9
2018-07-09T11:25:54.427Z,2.9
2018-07-09T11:28:54.680Z,2.9
2018-07-09T11:31:54.404Z,2.9
2018-07-09T11:34:54.459Z,2.9
2018-07-09T11:37:54.389Z,2.9
2018-07-09T11:40:54.515Z,2.9
2018-07-09T11:43:54.782Z,2.9
2018-07-09T11:46:54.365Z,2.9
2018-07-09T11:49:54.452Z,2.9
2018-07-09T11:52:54.525Z,2.9
2018-07-09T11:55:54.478Z,2.9
2018-07-09T11:58:55.367Z,2.9
2018-07-09T12:01:54.937Z,2.9
2018-07-09T12:04:55.614Z,2.9
2018-07-09T12:07:54.595Z,2.9
2018-07-09T12:10:54.420Z,2.9
2018-07-09T12:13:54.587Z,2.9
2018-07-09T12:16:54.579Z,2.9
2018-07-09T12:19:54.399Z,2.9
2018-07-09T12:22:54.644Z,2.9
2018-07-09T12:25:54.581Z,2.9
2018-07-09T12:28:55.384Z,2.9
2018-07-09T12:31:54.354Z,2.9
2018-07-09T12:34:54.389Z,2.9
2018-07-09T12:37:54.536Z,2.9
2018-07-09T12:40:54.555Z,2.9
2018-07-09T12:43:55.435Z,2.9
2018-07-09T12:46:54.593Z,2.9
2018-07-09T12:49:54.583Z,2.9
2018-07-09T12:52:54.482Z,2.9
2018-07-09T12:55:54.479Z,2.9
2018-07-09T12:58:54.369Z,2.9
2018-07-09T13:01:54.398Z,2.8
2018-07-09T13:04:54.794Z,2.8
2018-07-09T13:07:54.523Z,2.8
2018-07-09T13:10:54.600Z,2.8
2018-07-09T13:13:54.543Z,2.8
2018-07-09T13:16:54.369Z,2.8
2018-07-09T13:19:55.265Z,2.8
2018-07-09T13:22:54.567Z,2.8
2018-07-09T13:25:54.406Z,2.8
2018-07-09T13:28:54.499Z,2.8
2018-07-09T13:31:54.528Z,2.8
2018-07-09T13:34:54.438Z,2.8
2018-07-09T13:37:55.099Z,2.8
2018-07-09T13:40:54.389Z,2.8
2018-07-09T13:43:54.361Z,2.8
2018-07-09T13:46:54.361Z,2.8
2018-07-09T13:49:54.358Z,2.8
2018-07-09T13:52:54.489Z,2.8
2018-07-09T13:55:54.540Z,2.8
2018-07-09T13:58:54.447Z,2.8
2018-07-09T14:01:54.461Z,2.9
2018-07-09T14:04:54.595Z,2.9
2018-07-09T14:07:54.440Z,2.9
2018-07-09T14:10:54.436Z,2.9
2018-07-09T14:13:54.618Z,2.9
2018-07-09T14:16:54.433Z,2.9
2018-07-09T14:19:54.546Z,2.9
2018-07-09T14:22:54.606Z,2.9
2018-07-09T14:25:54.356Z,2.9
2018-07-09T14:28:54.499Z,2.9
2018-07-09T14:31:54.650Z,2.9
2018-07-09T14:34:54.408Z,2.9
2018-07-09T14:37:54.573Z,2.9
2018-07-09T14:40:54.469Z,2.9
2018-07-09T14:43:54.368Z,2.9
2018-07-09T14:46:54.786Z,2.9
2018-07-09T14:49:54.757Z,2.9
2018-07-09T14:52:54.421Z,2.9
2018-07-09T14:55:54.552Z,2.9
2018-07-09T14:58:54.600Z,2.9
2018-07-09T15:01:54.367Z,2.8
2018-07-09T15:04:54.391Z,2.8
2018-07-09T15:07:54.448Z,2.8
2018-07-09T15:10:54.321Z,2.8
2018-07-09T15:13:54.442Z,2.8
2018-07-09T15:16:54.633Z,2.8
2018-07-09T15:19:54.308Z,2.8
2018-07-09T15:22:54.461Z,2.8
2018-07-09T15:25:54.549Z,2.8
2018-07-09T15:28:54.357Z,2.8
2018-07-09T15:31:54.313Z,2.8
2018-07-09T15:34:54.606Z,2.8
2018-07-09T15:37:54.333Z,2.8
2018-07-09T15:40:54.499Z,2.8
2018-07-09T15:43:54.300Z,2.8
2018-07-09T15:46:54.375Z,2.8
2018-07-09T15:49:54.629Z,2.8
2018-07-09T15:52:54.437Z,2.8
2018-07-09T15:55:54.383Z,2.8
2018-07-09T15:58:54.493Z,2.8
2018-07-09T16:01:54.416Z,2.8
2018-07-09T16:04:54.373Z,2.8
2018-07-09T16:07:54.434Z,2.8
2018-07-09T16:10:54.448Z,2.8
2018-07-09T16:13:54.217Z,2.8
2018-07-09T16:16:54.257Z,2.8
2018-07-09T16:19:54.688Z,2.8
2018-07-09T16:22:54.260Z,2.8
2018-07-09T16:25:54.509Z,2.8
2018-07-09T16:28:55.246Z,2.8
2018-07-09T16:31:54.376Z,2.8
2018-07-09T16:34:54.383Z,2.8
2018-07-09T16:37:54.429Z,2.8
2018-07-09T16:40:54.255Z,2.8
2018-07-09T16:43:54.412Z,2.8
2018-07-09T16:46:54.914Z,2.8
2018-07-09T16:49:54.261Z,2.8
2018-07-09T16:52:54.286Z,2.8
2018-07-09T16:55:54.459Z,2.8
2018-07-09T16:58:54.197Z,2.8
2018-07-09T17:01:54.533Z,2.9
2018-07-09T17:04:54.571Z,2.9
2018-07-09T17:07:54.231Z,2.9
2018-07-09T17:10:54.360Z,2.9
2018-07-09T17:13:54.322Z,2.9
2018-07-09T17:16:54.577Z,2.9
2018-07-09T17:19:54.369Z,2.9
2018-07-09T17:22:54.393Z,2.9
2018-07-09T17:25:54.632Z,2.9
2018-07-09T17:28:54.378Z,2.9
2018-07-09T17:31:54.524Z,2.9
2018-07-09T17:34:55.285Z,2.9
2018-07-09T17:37:54.388Z,2.9
2018-07-09T17:40:54.261Z,2.9
2018-07-09T17:43:55.127Z,2.9
2018-07-09T17:46:54.320Z,2.9
2018-07-09T17:49:55.656Z,2.9
2018-07-09T17:52:54.575Z,2.9
2018-07-09T17:55:54.460Z,2.9
2018-07-09T17:58:54.539Z,2.9
2018-07-09T18:01:56.657Z,3
2018-07-09T18:04:54.570Z,3
2018-07-09T18:07:57.453Z,3
2018-07-09T18:10:54.539Z,3
2018-07-09T18:13:57.723Z,3
2018-07-09T18:16:54.620Z,3
2018-07-09T18:19:54.618Z,3
2018-07-09T18:22:54.524Z,3
2018-07-09T18:25:54.710Z,3
2018-07-09T18:28:54.513Z,3
2018-07-09T18:31:57.028Z,3
2018-07-09T18:34:54.513Z,3
2018-07-09T18:37:54.692Z,3
2018-07-09T18:40:54.616Z,3
2018-07-09T18:43:54.536Z,3
2018-07-09T18:46:57.269Z,3
2018-07-09T18:49:54.970Z,3
2018-07-09T18:52:54.924Z,3
2018-07-09T18:55:55.068Z,3
2018-07-09T18:58:54.788Z,3
2018-07-09T19:01:54.898Z,3
2018-07-09T19:04:55.102Z,3
2018-07-09T19:07:54.984Z,3
2018-07-09T19:10:54.853Z,3
2018-07-09T19:13:54.998Z,3
2018-07-09T19:16:57.250Z,3
2018-07-09T19:19:54.915Z,3
2018-07-09T19:22:55.151Z,3
2018-07-09T19:25:54.685Z,3
2018-07-09T19:28:55.016Z,3
2018-07-09T19:31:54.846Z,3
2018-07-09T19:34:54.901Z,3
2018-07-09T19:37:59.512Z,3
2018-07-09T19:40:54.709Z,3
2018-07-09T19:43:55.046Z,3
2018-07-09T19:46:54.548Z,3
2018-07-09T19:49:54.325Z,3
2018-07-09T19:52:54.250Z,3
2018-07-09T19:55:54.217Z,3
2018-07-09T19:58:54.370Z,3
2018-07-09T20:01:54.230Z,3.1
2018-07-09T20:04:54.717Z,3.1
2018-07-09T20:07:54.293Z,3.1
2018-07-09T20:10:54.498Z,3.1
2018-07-09T20:13:54.165Z,3.1
2018-07-09T20:16:54.384Z,3.1
2018-07-09T20:19:54.293Z,3.1
2018-07-09T20:22:54.187Z,3.1
2018-07-09T20:25:54.620Z,3.1
2018-07-09T20:28:54.321Z,3.1
2018-07-09T20:31:54.186Z,3.1
2018-07-09T20:34:54.248Z,3.1
2018-07-09T20:37:54.369Z,3.1
2018-07-09T20:40:54.186Z,3.1
2018-07-09T20:43:54.258Z,3.1
2018-07-09T20:46:54.380Z,3.1
2018-07-09T20:49:54.224Z,3.1
2018-07-09T20:52:54.552Z,3.1
2018-07-09T20:55:54.319Z,3.1
2018-07-09T20:58:54.246Z,3.1
2018-07-09T21:01:54.298Z,3.1
2018-07-09T21:04:55.328Z,3.1
2018-07-09T21:07:54.161Z,3.1
2018-07-09T21:10:54.356Z,3.1
2018-07-09T21:13:54.278Z,3.1
2018-07-09T21:16:54.193Z,3.1
2018-07-09T21:19:54.224Z,3.1
2018-07-09T21:22:54.466Z,3.1
2018-07-09T21:25:54.293Z,3.1
2018-07-09T21:28:55.770Z,3.1
2018-07-09T21:31:54.274Z,3.1
2018-07-09T21:34:54.407Z,3.1
2018-07-09T21:37:56.921Z,3.1
2018-07-09T21:40:54.209Z,3.1
2018-07-09T21:43:54.389Z,3.1
2018-07-09T21:46:54.416Z,3.1
2018-07-09T21:49:54.310Z,3.1
2018-07-09T21:52:54.513Z,3.1
2018-07-09T21:55:54.252Z,3.1
2018-07-09T21:58:54.300Z,3.1
2018-07-09T22:01:54.406Z,3.1
2018-07-09T22:04:54.487Z,3.1
2018-07-09T22:07:54.246Z,3.1
2018-07-09T22:10:54.261Z,3.1
2018-07-09T22:13:54.555Z,3.1
2018-07-09T22:16:54.382Z,3.1
2018-07-09T22:19:54.241Z,3.1
2018-07-09T22:22:54.242Z,3.1
2018-07-09T22:25:54.119Z,3.1
2018-07-09T22:28:54.117Z,3.1
2018-07-09T22:31:54.221Z,3.1
2018-07-09T22:34:54.257Z,3.1
2018-07-09T22:37:54.284Z,3.1
2018-07-09T22:40:54.340Z,3.1
2018-07-09T22:43:54.112Z,3.1
2018-07-09T22:46:54.315Z,3.1
2018-07-09T22:49:54.534Z,3.1
2018-07-09T22:52:54.219Z,3.1
2018-07-09T22:55:54.519Z,3.1
2018-07-09T22:58:54.426Z,3.1
2018-07-09T23:01:54.386Z,3.1
2018-07-09T23:04:54.202Z,3.1
2018-07-09T23:07:54.408Z,3.1
2018-07-09T23:10:54.197Z,3.1
2018-07-09T23:13:54.286Z,3.1
2018-07-09T23:16:54.323Z,3.1
2018-07-09T23:19:54.437Z,3.1
2018-07-09T23:22:54.500Z,3.1
2018-07-09T23:25:54.425Z,3.1
2018-07-09T23:28:54.141Z,3.1
2018-07-09T23:31:54.348Z,3.1
2018-07-09T23:34:54.234Z,3.1
2018-07-09T23:37:54.166Z,3.1
2018-07-09T23:40:54.211Z,3.1
2018-07-09T23:43:54.265Z,3.1
2018-07-09T23:46:54.239Z,3.1
2018-07-09T23:49:54.363Z,3.1
2018-07-09T23:52:54.463Z,3.1
2018-07-09T23:55:54.310Z,3.1
2018-07-09T23:58:54.275Z,3.1
